Terminal Aerodrome Forecast
Issued by NWS

Home | Current Version | Previous Version | Graphics & Text | Print | Product List | Glossary On
Versions: 1 2 3 4 5 6 7 8 9 10 11 12 13 14 15 16 17 18 19 20 21 22 23 24 25 26
000
FTUS43 KABR 241800 AAA
TAFATY
TAF AMD
KATY 241802Z 2418/2518 15014KT 4SM -RASN BR SCT009 BKN040 OVC060
     FM242000 18015G25KT P6SM VCSH SCT008 BKN040
     FM250300 17011KT 4SM BR OVC010
     FM251500 30020KT P6SM OVC025=

USA.gov is the U.S. government's official web portal to all federal, state and local government web resources and services.